Sugar Land Regional Airport Houston US
ICAO: KSGR
IATA: SGR
Category: Medium
Scheduled Services: No

Elevation: 82 ft
TransAlt. 18000 ft.

Airport Communications:
HOUSTON APP/DEP:123.8
ASOS:118.125
CTAF:118.65
GND/CLNC DEL:121.4
TWR:118.65
UNICOM:122.95

KSGR Zoom In..

If you have problems with the map follow the link
https://www.worldairports.se/pages/airport.php?
ICAO=KSGR

Runways:

(A) RW 17 length 8000 ft width 100 ft
---- / hdg 170

(B) RW 35 length 8000 ft width 100 ft
ILS 110.70 / hdg 350

Location; KSGR
Day. 14 / Time. 20.53 Zulu
* Altimeter: 29.97
* Temperature: 10° c. 50°f.
* Wind from: 290° Speed 16 kn with Gusts up to 22 kn.
Dewpoint: 04° c.
Visibility: 10 Statute Miles.
Clouds: Overcast 2400 ft.

KSGR 142053Z 29016G22KT 10SM OVC024 10/04 A2997 RMK AO2 PK WND 29026/2034 SLP150 T01000044 55002


Wind From 290°
Speed 16 kn.

 
 
jpsmedia.com for Web Design worldairports.se 2018   terms of use